Terminal Aerodrome Forecast
Issued by NWS

Home | Current Version | Previous Version | Text Only | Print | Product List | Glossary On
Versions: 1 2 3 4 5 6 7 8 9 10 11 12 13 14 15 16 17 18 19
000
FTUS42 KFFC 251018 AAB
TAFRYY
TAF AMD
KRYY 251018Z 2510/2606 14004KT P6SM SCT060
     FM251100 14007KT P6SM BKN045
     FM251800 15009KT P6SM OVC050
     FM252300 14006KT P6SM VCSH BKN035
     FM260300 14007KT 6SM -SHRA BKN025 PROB30 2603/2606 4SM TSRA
      BKN025CB
      AMD NOT SKED TIL 251200=

USA.gov is the U.S. government's official web portal to all federal, state and local government web resources and services.